Other Surface Observations
Issued by NWS Great Falls, MT

Home | Current Version | Previous Version | Text Only | Print | Product List | Glossary On
Versions: 1 2 3 4 5 6 7 8 9 10 11 12 13 14 15 16 17 18 19 20 21 22 23 24 25 26 27 28 29 30 31 32 33 34 35 36 37 38 39 40 41 42 43 44 45 46 47 48 49 50
000
SXUS55 KTFX 200755
OSOTFX
AREA AWOS OBSERVATIONS
NATIONAL WEATHER SERVICE GREAT FALLS MT
0150 AM MDT SAT SEP 20 2014

METAR KPWD 200745Z AUTO 00000KT 10SM 11/09 A2985 RMK PLENTYWOOD
METAR KPO1 200745Z AUTO 00000KT 12/09 RMK POPLAR
METAR K1S3 200745Z AUTO 24004KT 10SM 15/09 A3000 RMK FORSYTH
METAR KS71 200745Z AUTO 25012G17KT 10SM 17/06 A2994 RMK CHINOOK
METAR K6S0 200745Z AUTO 10SM 16/04 A3011 RMK BIG TIMBER
METAR K79S 200745Z AUTO 22006KT 10SM 13/06 A3005 RMK FORT BENTON
METAR KEKS 200745Z AUTO 04005KT 10SM 08/04 A3028 RMK ENNIS
METAR K38S 200745Z AUTO 25003KT 10SM 08/05 A3025 RMK DEER LODGE
METAR K3U3 200745Z AUTO 23007KT 10/04 A3022 RMK ANACONDA
METAR K6S5 200745Z AUTO 00000KT 10SM 10/06 A3019 RMK HAMILTON
METAR KS59 200745Z AUTO 00000KT 10SM 08/07 A3014 RMK LIBBY



USA.gov is the U.S. government's official web portal to all federal, state and local government web resources and services.